sensor_id;sensor_type;location;lat;lon;timestamp;P1;durP1;ratioP1;P2;durP2;ratioP2
73729;SDS011;62036;48.128;16.458;2023-02-01T00:01:34;0.70;;;0.60;;
73729;SDS011;62036;48.128;16.458;2023-02-01T00:04:00;1.73;;;0.50;;
73729;SDS011;62036;48.128;16.458;2023-02-01T00:06:26;1.15;;;0.60;;
73729;SDS011;62036;48.128;16.458;2023-02-01T00:08:53;0.90;;;0.57;;
73729;SDS011;62036;48.128;16.458;2023-02-01T00:11:19;1.58;;;1.00;;
73729;SDS011;62036;48.128;16.458;2023-02-01T00:13:45;2.45;;;0.90;;
73729;SDS011;62036;48.128;16.458;2023-02-01T00:16:21;1.23;;;0.68;;
73729;SDS011;62036;48.128;16.458;2023-02-01T00:18:49;1.65;;;1.08;;
73729;SDS011;62036;48.128;16.458;2023-02-01T00:21:17;0.77;;;0.73;;
73729;SDS011;62036;48.128;16.458;2023-02-01T00:23:44;1.70;;;0.73;;
73729;SDS011;62036;48.128;16.458;2023-02-01T00:26:17;0.63;;;0.35;;
73729;SDS011;62036;48.128;16.458;2023-02-01T00:28:43;0.93;;;0.55;;
73729;SDS011;62036;48.128;16.458;2023-02-01T00:31:11;1.15;;;1.00;;
73729;SDS011;62036;48.128;16.458;2023-02-01T00:33:37;0.90;;;0.77;;
73729;SDS011;62036;48.128;16.458;2023-02-01T00:36:04;1.15;;;0.60;;
73729;SDS011;62036;48.128;16.458;2023-02-01T00:38:31;1.10;;;0.60;;
73729;SDS011;62036;48.128;16.458;2023-02-01T00:41:04;1.23;;;0.80;;
73729;SDS011;62036;48.128;16.458;2023-02-01T00:43:31;0.90;;;0.82;;
73729;SDS011;62036;48.128;16.458;2023-02-01T00:45:58;1.65;;;0.95;;
73729;SDS011;62036;48.128;16.458;2023-02-01T00:48:24;1.45;;;0.90;;
73729;SDS011;62036;48.128;16.458;2023-02-01T00:50:50;1.80;;;0.70;;
73729;SDS011;62036;48.128;16.458;2023-02-01T00:53:16;1.58;;;1.13;;
73729;SDS011;62036;48.128;16.458;2023-02-01T00:55:46;1.80;;;1.25;;
73729;SDS011;62036;48.128;16.458;2023-02-01T00:58:12;1.85;;;1.05;;
73729;SDS011;62036;48.128;16.458;2023-02-01T01:00:38;2.30;;;1.20;;
73729;SDS011;62036;48.128;16.458;2023-02-01T01:03:04;1.60;;;1.10;;
73729;SDS011;62036;48.128;16.458;2023-02-01T01:05:51;1.88;;;1.13;;
73729;SDS011;62036;48.128;16.458;2023-02-01T01:08:22;1.30;;;1.20;;
73729;SDS011;62036;48.128;16.458;2023-02-01T01:10:48;1.67;;;1.10;;
73729;SDS011;62036;48.128;16.458;2023-02-01T01:13:14;0.80;;;0.80;;
73729;SDS011;62036;48.128;16.458;2023-02-01T01:15:40;1.65;;;1.23;;
73729;SDS011;62036;48.128;16.458;2023-02-01T01:18:07;3.00;;;0.80;;
73729;SDS011;62036;48.128;16.458;2023-02-01T01:20:37;1.40;;;1.27;;
73729;SDS011;62036;48.128;16.458;2023-02-01T01:23:03;1.27;;;0.63;;
73729;SDS011;62036;48.128;16.458;2023-02-01T01:25:30;1.13;;;0.80;;
73729;SDS011;62036;48.128;16.458;2023-02-01T01:27:56;1.00;;;0.90;;
73729;SDS011;62036;48.128;16.458;2023-02-01T01:30:22;1.88;;;1.30;;
73729;SDS011;62036;48.128;16.458;2023-02-01T01:32:48;1.50;;;0.80;;
73729;SDS011;62036;48.128;16.458;2023-02-01T01:35:14;1.42;;;0.93;;
73729;SDS011;62036;48.128;16.458;2023-02-01T01:37:40;1.70;;;0.95;;
73729;SDS011;62036;48.128;16.458;2023-02-01T01:40:07;1.85;;;1.05;;
73729;SDS011;62036;48.128;16.458;2023-02-01T01:42:36;1.15;;;0.90;;
73729;SDS011;62036;48.128;16.458;2023-02-01T01:45:04;0.77;;;0.65;;
73729;SDS011;62036;48.128;16.458;2023-02-01T01:47:35;1.02;;;0.93;;
73729;SDS011;62036;48.128;16.458;2023-02-01T01:52:28;1.05;;;0.68;;
73729;SDS011;62036;48.128;16.458;2023-02-01T01:54:54;1.30;;;1.02;;
73729;SDS011;62036;48.128;16.458;2023-02-01T01:57:24;1.25;;;0.95;;
73729;SDS011;62036;48.128;16.458;2023-02-01T01:59:56;1.00;;;0.90;;
73729;SDS011;62036;48.128;16.458;2023-02-01T02:02:25;1.65;;;1.42;;
73729;SDS011;62036;48.128;16.458;2023-02-01T02:04:51;2.28;;;1.13;;
73729;SDS011;62036;48.128;16.458;2023-02-01T02:07:19;1.77;;;1.20;;
73729;SDS011;62036;48.128;16.458;2023-02-01T02:09:46;1.48;;;1.33;;
73729;SDS011;62036;48.128;16.458;2023-02-01T02:12:12;1.52;;;1.15;;
73729;SDS011;62036;48.128;16.458;2023-02-01T02:14:38;2.65;;;1.08;;
73729;SDS011;62036;48.128;16.458;2023-02-01T02:24:47;1.02;;;0.68;;
73729;SDS011;62036;48.128;16.458;2023-02-01T02:30:16;1.10;;;0.63;;
73729;SDS011;62036;48.128;16.458;2023-02-01T02:37:52;0.52;;;0.52;;
73729;SDS011;62036;48.128;16.458;2023-02-01T02:42:58;1.35;;;1.00;;
73729;SDS011;62036;48.128;16.458;2023-02-01T02:45:54;2.42;;;1.10;;
73729;SDS011;62036;48.128;16.458;2023-02-01T02:51:58;0.70;;;0.70;;
73729;SDS011;62036;48.128;16.458;2023-02-01T02:54:45;1.35;;;1.10;;
73729;SDS011;62036;48.128;16.458;2023-02-01T02:57:30;1.67;;;0.98;;
73729;SDS011;62036;48.128;16.458;2023-02-01T03:00:16;2.92;;;0.80;;
73729;SDS011;62036;48.128;16.458;2023-02-01T03:03:02;1.27;;;0.85;;
73729;SDS011;62036;48.128;16.458;2023-02-01T03:05:48;1.50;;;0.93;;
73729;SDS011;62036;48.128;16.458;2023-02-01T03:08:25;0.63;;;0.50;;
73729;SDS011;62036;48.128;16.458;2023-02-01T03:18:13;2.40;;;1.30;;
73729;SDS011;62036;48.128;16.458;2023-02-01T03:20:42;2.55;;;1.52;;
73729;SDS011;62036;48.128;16.458;2023-02-01T03:23:09;1.83;;;1.20;;
73729;SDS011;62036;48.128;16.458;2023-02-01T03:25:37;1.25;;;1.08;;
73729;SDS011;62036;48.128;16.458;2023-02-01T03:28:04;0.98;;;0.73;;
73729;SDS011;62036;48.128;16.458;2023-02-01T03:30:33;1.55;;;0.60;;
73729;SDS011;62036;48.128;16.458;2023-02-01T03:33:02;2.28;;;1.20;;
73729;SDS011;62036;48.128;16.458;2023-02-01T03:40:39;1.98;;;0.93;;
73729;SDS011;62036;48.128;16.458;2023-02-01T03:43:07;1.55;;;1.45;;
73729;SDS011;62036;48.128;16.458;2023-02-01T03:45:38;2.47;;;1.02;;
73729;SDS011;62036;48.128;16.458;2023-02-01T03:50:33;1.30;;;1.20;;
73729;SDS011;62036;48.128;16.458;2023-02-01T03:53:05;1.60;;;0.90;;
73729;SDS011;62036;48.128;16.458;2023-02-01T03:55:32;2.08;;;0.95;;
73729;SDS011;62036;48.128;16.458;2023-02-01T03:58:07;1.15;;;0.85;;
73729;SDS011;62036;48.128;16.458;2023-02-01T04:00:33;1.40;;;1.25;;
73729;SDS011;62036;48.128;16.458;2023-02-01T04:02:59;1.70;;;1.45;;
73729;SDS011;62036;48.128;16.458;2023-02-01T04:05:26;1.70;;;1.05;;
73729;SDS011;62036;48.128;16.458;2023-02-01T04:07:52;1.83;;;1.60;;
73729;SDS011;62036;48.128;16.458;2023-02-01T04:10:19;1.85;;;1.35;;
73729;SDS011;62036;48.128;16.458;2023-02-01T04:12:45;1.83;;;1.30;;
73729;SDS011;62036;48.128;16.458;2023-02-01T04:15:11;2.70;;;1.83;;
73729;SDS011;62036;48.128;16.458;2023-02-01T04:17:37;3.13;;;1.33;;
73729;SDS011;62036;48.128;16.458;2023-02-01T04:20:03;1.65;;;1.05;;
73729;SDS011;62036;48.128;16.458;2023-02-01T04:22:29;1.30;;;1.20;;
73729;SDS011;62036;48.128;16.458;2023-02-01T04:24:55;3.88;;;1.58;;
73729;SDS011;62036;48.128;16.458;2023-02-01T04:27:21;1.42;;;1.33;;
73729;SDS011;62036;48.128;16.458;2023-02-01T04:29:47;2.95;;;1.27;;
73729;SDS011;62036;48.128;16.458;2023-02-01T04:32:16;1.85;;;1.33;;
73729;SDS011;62036;48.128;16.458;2023-02-01T04:34:43;3.65;;;1.15;;
73729;SDS011;62036;48.128;16.458;2023-02-01T04:37:09;6.65;;;2.08;;
73729;SDS011;62036;48.128;16.458;2023-02-01T04:39:35;3.95;;;1.23;;
73729;SDS011;62036;48.128;16.458;2023-02-01T04:42:01;1.70;;;1.33;;
73729;SDS011;62036;48.128;16.458;2023-02-01T04:44:27;3.05;;;1.58;;
73729;SDS011;62036;48.128;16.458;2023-02-01T04:46:52;2.95;;;1.65;;
73729;SDS011;62036;48.128;16.458;2023-02-01T04:49:19;1.33;;;1.15;;
73729;SDS011;62036;48.128;16.458;2023-02-01T04:51:46;3.97;;;1.50;;
73729;SDS011;62036;48.128;16.458;2023-02-01T04:54:12;1.73;;;1.15;;
73729;SDS011;62036;48.128;16.458;2023-02-01T04:56:38;3.95;;;1.92;;
73729;SDS011;62036;48.128;16.458;2023-02-01T04:59:04;2.88;;;1.50;;
73729;SDS011;62036;48.128;16.458;2023-02-01T05:01:31;2.25;;;2.05;;
73729;SDS011;62036;48.128;16.458;2023-02-01T05:03:57;4.90;;;1.50;;
73729;SDS011;62036;48.128;16.458;2023-02-01T05:06:23;2.97;;;1.63;;
73729;SDS011;62036;48.128;16.458;2023-02-01T05:08:49;1.83;;;1.70;;
73729;SDS011;62036;48.128;16.458;2023-02-01T05:11:15;2.22;;;1.60;;
73729;SDS011;62036;48.128;16.458;2023-02-01T05:14:00;2.30;;;1.50;;
73729;SDS011;62036;48.128;16.458;2023-02-01T05:16:26;2.13;;;1.42;;
73729;SDS011;62036;48.128;16.458;2023-02-01T05:18:52;3.35;;;1.65;;
73729;SDS011;62036;48.128;16.458;2023-02-01T05:21:19;3.35;;;2.20;;
73729;SDS011;62036;48.128;16.458;2023-02-01T05:23:45;2.58;;;1.90;;
73729;SDS011;62036;48.128;16.458;2023-02-01T05:26:30;3.40;;;1.30;;
73729;SDS011;62036;48.128;16.458;2023-02-01T05:28:56;2.33;;;1.58;;
73729;SDS011;62036;48.128;16.458;2023-02-01T05:31:22;2.03;;;1.60;;
73729;SDS011;62036;48.128;16.458;2023-02-01T05:33:48;3.22;;;1.92;;
73729;SDS011;62036;48.128;16.458;2023-02-01T05:36:14;3.30;;;1.55;;
73729;SDS011;62036;48.128;16.458;2023-02-01T05:38:40;2.78;;;1.92;;
73729;SDS011;62036;48.128;16.458;2023-02-01T05:41:06;1.77;;;1.13;;
73729;SDS011;62036;48.128;16.458;2023-02-01T05:43:33;5.43;;;1.83;;
73729;SDS011;62036;48.128;16.458;2023-02-01T05:45:59;2.38;;;1.88;;
73729;SDS011;62036;48.128;16.458;2023-02-01T05:48:25;2.33;;;1.77;;
73729;SDS011;62036;48.128;16.458;2023-02-01T05:50:50;3.88;;;2.13;;
73729;SDS011;62036;48.128;16.458;2023-02-01T05:53:16;1.92;;;1.70;;
73729;SDS011;62036;48.128;16.458;2023-02-01T05:55:42;2.45;;;2.25;;
73729;SDS011;62036;48.128;16.458;2023-02-01T05:58:09;3.85;;;2.00;;
73729;SDS011;62036;48.128;16.458;2023-02-01T06:00:35;1.92;;;1.35;;
73729;SDS011;62036;48.128;16.458;2023-02-01T06:03:01;3.88;;;2.08;;
73729;SDS011;62036;48.128;16.458;2023-02-01T06:05:27;2.10;;;1.90;;
73729;SDS011;62036;48.128;16.458;2023-02-01T06:07:53;2.45;;;1.83;;
73729;SDS011;62036;48.128;16.458;2023-02-01T06:10:19;3.45;;;2.05;;
73729;SDS011;62036;48.128;16.458;2023-02-01T06:12:45;2.80;;;1.98;;
73729;SDS011;62036;48.128;16.458;2023-02-01T06:15:12;2.28;;;1.30;;
73729;SDS011;62036;48.128;16.458;2023-02-01T06:17:40;1.88;;;1.52;;
73729;SDS011;62036;48.128;16.458;2023-02-01T06:20:07;3.38;;;1.45;;
73729;SDS011;62036;48.128;16.458;2023-02-01T06:22:33;3.67;;;1.65;;
73729;SDS011;62036;48.128;16.458;2023-02-01T06:25:01;3.13;;;2.13;;
73729;SDS011;62036;48.128;16.458;2023-02-01T06:27:27;2.33;;;1.50;;
73729;SDS011;62036;48.128;16.458;2023-02-01T06:29:53;3.22;;;2.17;;
73729;SDS011;62036;48.128;16.458;2023-02-01T06:32:20;1.88;;;1.23;;
73729;SDS011;62036;48.128;16.458;2023-02-01T06:34:46;4.78;;;2.78;;
73729;SDS011;62036;48.128;16.458;2023-02-01T06:37:12;2.72;;;1.77;;
73729;SDS011;62036;48.128;16.458;2023-02-01T06:39:39;2.22;;;1.80;;
73729;SDS011;62036;48.128;16.458;2023-02-01T06:42:05;2.15;;;1.88;;
73729;SDS011;62036;48.128;16.458;2023-02-01T06:44:31;2.00;;;1.58;;
73729;SDS011;62036;48.128;16.458;2023-02-01T06:46:57;3.05;;;2.00;;
73729;SDS011;62036;48.128;16.458;2023-02-01T06:49:23;3.33;;;1.85;;
73729;SDS011;62036;48.128;16.458;2023-02-01T06:51:49;2.25;;;1.75;;
73729;SDS011;62036;48.128;16.458;2023-02-01T06:54:15;2.03;;;1.65;;
73729;SDS011;62036;48.128;16.458;2023-02-01T06:56:41;2.53;;;1.48;;
73729;SDS011;62036;48.128;16.458;2023-02-01T06:59:07;2.22;;;1.50;;
73729;SDS011;62036;48.128;16.458;2023-02-01T07:01:33;2.05;;;1.55;;
73729;SDS011;62036;48.128;16.458;2023-02-01T07:03:59;4.00;;;2.10;;
73729;SDS011;62036;48.128;16.458;2023-02-01T07:06:25;2.75;;;1.55;;
73729;SDS011;62036;48.128;16.458;2023-02-01T07:08:51;3.75;;;2.47;;
73729;SDS011;62036;48.128;16.458;2023-02-01T07:11:21;2.35;;;1.75;;
73729;SDS011;62036;48.128;16.458;2023-02-01T07:13:47;2.55;;;1.77;;
73729;SDS011;62036;48.128;16.458;2023-02-01T07:16:14;2.28;;;1.67;;
73729;SDS011;62036;48.128;16.458;2023-02-01T07:18:40;3.13;;;1.88;;
73729;SDS011;62036;48.128;16.458;2023-02-01T07:21:06;2.67;;;1.65;;
73729;SDS011;62036;48.128;16.458;2023-02-01T07:23:33;5.05;;;2.55;;
73729;SDS011;62036;48.128;16.458;2023-02-01T07:26:00;2.50;;;2.00;;
73729;SDS011;62036;48.128;16.458;2023-02-01T07:28:27;3.33;;;1.58;;
73729;SDS011;62036;48.128;16.458;2023-02-01T07:30:54;1.60;;;1.25;;
73729;SDS011;62036;48.128;16.458;2023-02-01T07:33:21;1.35;;;1.10;;
73729;SDS011;62036;48.128;16.458;2023-02-01T07:35:47;1.83;;;1.23;;
73729;SDS011;62036;48.128;16.458;2023-02-01T07:38:13;2.72;;;1.77;;
73729;SDS011;62036;48.128;16.458;2023-02-01T07:40:40;1.55;;;1.23;;
73729;SDS011;62036;48.128;16.458;2023-02-01T07:43:06;2.05;;;1.70;;
73729;SDS011;62036;48.128;16.458;2023-02-01T07:45:33;1.65;;;1.33;;
73729;SDS011;62036;48.128;16.458;2023-02-01T07:47:59;2.20;;;1.85;;
73729;SDS011;62036;48.128;16.458;2023-02-01T07:50:25;3.10;;;1.58;;
73729;SDS011;62036;48.128;16.458;2023-02-01T07:52:51;1.80;;;1.58;;
73729;SDS011;62036;48.128;16.458;2023-02-01T07:55:18;1.75;;;1.65;;
73729;SDS011;62036;48.128;16.458;2023-02-01T07:57:44;1.95;;;1.17;;
73729;SDS011;62036;48.128;16.458;2023-02-01T08:00:10;1.55;;;1.45;;
73729;SDS011;62036;48.128;16.458;2023-02-01T08:02:58;2.42;;;1.40;;
73729;SDS011;62036;48.128;16.458;2023-02-01T08:05:25;1.83;;;1.35;;
73729;SDS011;62036;48.128;16.458;2023-02-01T08:07:51;2.45;;;1.50;;
73729;SDS011;62036;48.128;16.458;2023-02-01T08:10:17;1.98;;;1.52;;
73729;SDS011;62036;48.128;16.458;2023-02-01T08:12:43;1.65;;;1.33;;
73729;SDS011;62036;48.128;16.458;2023-02-01T08:15:13;1.73;;;1.30;;
73729;SDS011;62036;48.128;16.458;2023-02-01T08:17:39;2.42;;;1.67;;
73729;SDS011;62036;48.128;16.458;2023-02-01T08:20:05;2.92;;;1.77;;
73729;SDS011;62036;48.128;16.458;2023-02-01T08:22:32;1.90;;;1.63;;
73729;SDS011;62036;48.128;16.458;2023-02-01T08:24:58;1.77;;;1.50;;
73729;SDS011;62036;48.128;16.458;2023-02-01T08:27:26;3.58;;;2.05;;
73729;SDS011;62036;48.128;16.458;2023-02-01T08:29:52;2.08;;;1.88;;
73729;SDS011;62036;48.128;16.458;2023-02-01T08:32:19;2.40;;;1.80;;
73729;SDS011;62036;48.128;16.458;2023-02-01T08:34:45;2.22;;;1.63;;
73729;SDS011;62036;48.128;16.458;2023-02-01T08:37:11;1.15;;;0.95;;
73729;SDS011;62036;48.128;16.458;2023-02-01T08:39:37;4.28;;;1.80;;
73729;SDS011;62036;48.128;16.458;2023-02-01T08:42:03;2.25;;;1.77;;
73729;SDS011;62036;48.128;16.458;2023-02-01T08:44:47;3.20;;;1.50;;
73729;SDS011;62036;48.128;16.458;2023-02-01T08:47:13;3.63;;;2.22;;
73729;SDS011;62036;48.128;16.458;2023-02-01T08:49:39;3.33;;;1.55;;
73729;SDS011;62036;48.128;16.458;2023-02-01T08:52:05;4.15;;;2.03;;
73729;SDS011;62036;48.128;16.458;2023-02-01T08:54:31;1.83;;;1.33;;
73729;SDS011;62036;48.128;16.458;2023-02-01T08:56:57;2.65;;;1.83;;
73729;SDS011;62036;48.128;16.458;2023-02-01T08:59:23;2.33;;;1.77;;
73729;SDS011;62036;48.128;16.458;2023-02-01T09:01:49;2.35;;;1.92;;
73729;SDS011;62036;48.128;16.458;2023-02-01T09:04:15;2.00;;;1.10;;
73729;SDS011;62036;48.128;16.458;2023-02-01T09:06:41;1.40;;;0.98;;
73729;SDS011;62036;48.128;16.458;2023-02-01T09:09:07;1.75;;;1.17;;
73729;SDS011;62036;48.128;16.458;2023-02-01T09:11:33;3.78;;;1.75;;
73729;SDS011;62036;48.128;16.458;2023-02-01T09:13:59;1.70;;;1.40;;
73729;SDS011;62036;48.128;16.458;2023-02-01T09:16:25;1.92;;;1.23;;
73729;SDS011;62036;48.128;16.458;2023-02-01T09:18:51;2.15;;;1.40;;
73729;SDS011;62036;48.128;16.458;2023-02-01T09:21:17;3.25;;;1.38;;
73729;SDS011;62036;48.128;16.458;2023-02-01T09:23:43;2.72;;;1.73;;
73729;SDS011;62036;48.128;16.458;2023-02-01T09:26:10;2.15;;;1.42;;
73729;SDS011;62036;48.128;16.458;2023-02-01T09:28:36;1.67;;;1.10;;
73729;SDS011;62036;48.128;16.458;2023-02-01T09:31:03;1.75;;;1.63;;
73729;SDS011;62036;48.128;16.458;2023-02-01T09:33:29;2.50;;;1.52;;
73729;SDS011;62036;48.128;16.458;2023-02-01T09:35:56;3.38;;;1.55;;
73729;SDS011;62036;48.128;16.458;2023-02-01T09:38:22;1.70;;;1.60;;
73729;SDS011;62036;48.128;16.458;2023-02-01T09:40:50;2.65;;;1.48;;
73729;SDS011;62036;48.128;16.458;2023-02-01T09:48:19;1.23;;;1.10;;
73729;SDS011;62036;48.128;16.458;2023-02-01T09:50:50;2.72;;;1.60;;
73729;SDS011;62036;48.128;16.458;2023-02-01T09:53:34;2.15;;;1.67;;
73729;SDS011;62036;48.128;16.458;2023-02-01T09:56:07;1.35;;;1.02;;
73729;SDS011;62036;48.128;16.458;2023-02-01T09:58:47;1.50;;;1.00;;
73729;SDS011;62036;48.128;16.458;2023-02-01T10:01:18;2.28;;;0.68;;
73729;SDS011;62036;48.128;16.458;2023-02-01T10:03:45;2.33;;;1.23;;
73729;SDS011;62036;48.128;16.458;2023-02-01T10:11:19;1.77;;;1.27;;
73729;SDS011;62036;48.128;16.458;2023-02-01T10:16:27;5.50;;;1.60;;
73729;SDS011;62036;48.128;16.458;2023-02-01T10:26:33;1.45;;;1.20;;
73729;SDS011;62036;48.128;16.458;2023-02-01T10:29:03;2.20;;;1.20;;
73729;SDS011;62036;48.128;16.458;2023-02-01T10:31:30;3.08;;;1.27;;
73729;SDS011;62036;48.128;16.458;2023-02-01T10:34:01;2.63;;;1.30;;
73729;SDS011;62036;48.128;16.458;2023-02-01T10:36:35;1.95;;;1.30;;
73729;SDS011;62036;48.128;16.458;2023-02-01T10:39:05;1.25;;;0.85;;
73729;SDS011;62036;48.128;16.458;2023-02-01T10:41:33;1.85;;;0.80;;
73729;SDS011;62036;48.128;16.458;2023-02-01T10:44:00;1.40;;;0.80;;
73729;SDS011;62036;48.128;16.458;2023-02-01T10:46:29;1.27;;;1.13;;
73729;SDS011;62036;48.128;16.458;2023-02-01T10:48:56;1.73;;;0.80;;
73729;SDS011;62036;48.128;16.458;2023-02-01T10:51:26;1.55;;;1.02;;
73729;SDS011;62036;48.128;16.458;2023-02-01T10:53:58;1.55;;;0.85;;
73729;SDS011;62036;48.128;16.458;2023-02-01T10:56:26;1.85;;;1.65;;
73729;SDS011;62036;48.128;16.458;2023-02-01T10:58:59;1.10;;;1.00;;
73729;SDS011;62036;48.128;16.458;2023-02-01T11:01:37;1.42;;;0.80;;
73729;SDS011;62036;48.128;16.458;2023-02-01T11:04:04;1.63;;;1.08;;
73729;SDS011;62036;48.128;16.458;2023-02-01T11:06:33;1.33;;;1.10;;
73729;SDS011;62036;48.128;16.458;2023-02-01T11:09:00;0.80;;;0.50;;
73729;SDS011;62036;48.128;16.458;2023-02-01T11:11:27;2.88;;;1.33;;
73729;SDS011;62036;48.128;16.458;2023-02-01T11:13:58;1.50;;;1.38;;
73729;SDS011;62036;48.128;16.458;2023-02-01T11:16:35;1.40;;;1.27;;
73729;SDS011;62036;48.128;16.458;2023-02-01T11:19:01;1.55;;;1.00;;
73729;SDS011;62036;48.128;16.458;2023-02-01T11:21:27;1.40;;;0.82;;
73729;SDS011;62036;48.128;16.458;2023-02-01T11:23:53;2.85;;;1.35;;
73729;SDS011;62036;48.128;16.458;2023-02-01T11:26:26;2.63;;;1.50;;
73729;SDS011;62036;48.128;16.458;2023-02-01T11:29:14;2.40;;;1.45;;
73729;SDS011;62036;48.128;16.458;2023-02-01T11:31:39;2.15;;;0.90;;
73729;SDS011;62036;48.128;16.458;2023-02-01T11:34:13;2.95;;;1.38;;
73729;SDS011;62036;48.128;16.458;2023-02-01T11:36:39;1.77;;;1.35;;
73729;SDS011;62036;48.128;16.458;2023-02-01T11:41:53;2.70;;;1.75;;
73729;SDS011;62036;48.128;16.458;2023-02-01T11:44:22;1.15;;;0.80;;
73729;SDS011;62036;48.128;16.458;2023-02-01T11:46:48;2.15;;;1.45;;
73729;SDS011;62036;48.128;16.458;2023-02-01T11:49:25;1.80;;;1.25;;
73729;SDS011;62036;48.128;16.458;2023-02-01T12:00:02;1.90;;;1.80;;
73729;SDS011;62036;48.128;16.458;2023-02-01T12:18:14;2.15;;;1.38;;
73729;SDS011;62036;48.128;16.458;2023-02-01T12:25:44;1.30;;;1.15;;
73729;SDS011;62036;48.128;16.458;2023-02-01T12:30:57;2.45;;;1.20;;
73729;SDS011;62036;48.128;16.458;2023-02-01T12:41:24;1.70;;;0.90;;
73729;SDS011;62036;48.128;16.458;2023-02-01T12:43:57;0.75;;;0.68;;
73729;SDS011;62036;48.128;16.458;2023-02-01T12:46:29;3.45;;;1.25;;
73729;SDS011;62036;48.128;16.458;2023-02-01T12:49:00;1.83;;;1.00;;
73729;SDS011;62036;48.128;16.458;2023-02-01T12:51:27;1.25;;;1.15;;
73729;SDS011;62036;48.128;16.458;2023-02-01T12:53:55;1.58;;;1.10;;
73729;SDS011;62036;48.128;16.458;2023-02-01T12:56:38;2.05;;;1.23;;
73729;SDS011;62036;48.128;16.458;2023-02-01T12:59:19;1.42;;;0.98;;
73729;SDS011;62036;48.128;16.458;2023-02-01T13:01:47;1.45;;;1.08;;
73729;SDS011;62036;48.128;16.458;2023-02-01T13:04:18;1.58;;;0.60;;
73729;SDS011;62036;48.128;16.458;2023-02-01T13:06:47;1.42;;;1.02;;
73729;SDS011;62036;48.128;16.458;2023-02-01T13:09:20;1.42;;;1.15;;
73729;SDS011;62036;48.128;16.458;2023-02-01T13:11:48;1.55;;;1.17;;
73729;SDS011;62036;48.128;16.458;2023-02-01T13:16:45;1.42;;;0.80;;
73729;SDS011;62036;48.128;16.458;2023-02-01T13:19:16;1.25;;;1.00;;
73729;SDS011;62036;48.128;16.458;2023-02-01T13:21:46;1.10;;;0.73;;
73729;SDS011;62036;48.128;16.458;2023-02-01T13:26:59;0.82;;;0.82;;
73729;SDS011;62036;48.128;16.458;2023-02-01T13:29:25;1.58;;;0.88;;
73729;SDS011;62036;48.128;16.458;2023-02-01T13:31:57;3.03;;;0.60;;
73729;SDS011;62036;48.128;16.458;2023-02-01T13:44:44;1.13;;;1.00;;
73729;SDS011;62036;48.128;16.458;2023-02-01T13:47:21;2.25;;;0.90;;
73729;SDS011;62036;48.128;16.458;2023-02-01T13:49:48;0.85;;;0.70;;
73729;SDS011;62036;48.128;16.458;2023-02-01T13:52:23;1.83;;;0.70;;
73729;SDS011;62036;48.128;16.458;2023-02-01T13:54:49;0.68;;;0.63;;
73729;SDS011;62036;48.128;16.458;2023-02-01T13:57:34;1.63;;;0.60;;
73729;SDS011;62036;48.128;16.458;2023-02-01T14:02:47;1.80;;;0.80;;
73729;SDS011;62036;48.128;16.458;2023-02-01T14:12:56;1.98;;;1.20;;
73729;SDS011;62036;48.128;16.458;2023-02-01T14:15:29;2.40;;;1.80;;
73729;SDS011;62036;48.128;16.458;2023-02-01T14:17:55;1.70;;;0.80;;
73729;SDS011;62036;48.128;16.458;2023-02-01T14:20:36;2.05;;;1.50;;
73729;SDS011;62036;48.128;16.458;2023-02-01T14:23:08;1.45;;;0.70;;
73729;SDS011;62036;48.128;16.458;2023-02-01T14:28:09;2.15;;;0.80;;
73729;SDS011;62036;48.128;16.458;2023-02-01T14:30:35;0.57;;;0.10;;
73729;SDS011;62036;48.128;16.458;2023-02-01T14:33:11;0.40;;;0.40;;
73729;SDS011;62036;48.128;16.458;2023-02-01T14:35:37;1.10;;;0.63;;
73729;SDS011;62036;48.128;16.458;2023-02-01T14:38:03;2.13;;;0.32;;
73729;SDS011;62036;48.128;16.458;2023-02-01T14:40:29;1.67;;;0.70;;
73729;SDS011;62036;48.128;16.458;2023-02-01T14:42:56;0.30;;;0.30;;
73729;SDS011;62036;48.128;16.458;2023-02-01T14:47:49;0.38;;;0.32;;
73729;SDS011;62036;48.128;16.458;2023-02-01T14:50:27;0.68;;;0.30;;
73729;SDS011;62036;48.128;16.458;2023-02-01T15:00:55;0.50;;;0.30;;
73729;SDS011;62036;48.128;16.458;2023-02-01T15:05:54;0.30;;;0.30;;
73729;SDS011;62036;48.128;16.458;2023-02-01T15:08:25;1.38;;;1.23;;
73729;SDS011;62036;48.128;16.458;2023-02-01T15:10:52;2.22;;;1.30;;
73729;SDS011;62036;48.128;16.458;2023-02-01T15:13:19;0.70;;;0.35;;
73729;SDS011;62036;48.128;16.458;2023-02-01T15:18:31;1.08;;;1.00;;
73729;SDS011;62036;48.128;16.458;2023-02-01T15:20:58;1.67;;;0.93;;
73729;SDS011;62036;48.128;16.458;2023-02-01T15:23:25;1.67;;;0.77;;
73729;SDS011;62036;48.128;16.458;2023-02-01T15:25:51;3.38;;;0.90;;
73729;SDS011;62036;48.128;16.458;2023-02-01T15:28:17;1.25;;;1.00;;
73729;SDS011;62036;48.128;16.458;2023-02-01T15:33:19;1.10;;;0.68;;
73729;SDS011;62036;48.128;16.458;2023-02-01T15:35:46;1.15;;;0.70;;
73729;SDS011;62036;48.128;16.458;2023-02-01T15:41:00;2.08;;;1.08;;
73729;SDS011;62036;48.128;16.458;2023-02-01T15:43:27;0.68;;;0.60;;
73729;SDS011;62036;48.128;16.458;2023-02-01T15:45:58;4.35;;;1.20;;
73729;SDS011;62036;48.128;16.458;2023-02-01T15:48:25;0.65;;;0.57;;
73729;SDS011;62036;48.128;16.458;2023-02-01T15:50:52;2.38;;;1.23;;
73729;SDS011;62036;48.128;16.458;2023-02-01T15:53:21;1.25;;;0.60;;
73729;SDS011;62036;48.128;16.458;2023-02-01T15:55:50;0.85;;;0.30;;
73729;SDS011;62036;48.128;16.458;2023-02-01T15:58:18;2.47;;;0.60;;
73729;SDS011;62036;48.128;16.458;2023-02-01T16:00:46;2.58;;;0.63;;
73729;SDS011;62036;48.128;16.458;2023-02-01T16:03:27;1.00;;;0.80;;
73729;SDS011;62036;48.128;16.458;2023-02-01T16:05:57;1.05;;;0.80;;
73729;SDS011;62036;48.128;16.458;2023-02-01T16:08:24;1.75;;;0.63;;
73729;SDS011;62036;48.128;16.458;2023-02-01T16:10:51;2.30;;;0.63;;
73729;SDS011;62036;48.128;16.458;2023-02-01T16:13:18;0.77;;;0.70;;
73729;SDS011;62036;48.128;16.458;2023-02-01T16:15:48;1.33;;;0.80;;
73729;SDS011;62036;48.128;16.458;2023-02-01T16:18:14;3.00;;;0.73;;
73729;SDS011;62036;48.128;16.458;2023-02-01T16:20:41;2.58;;;1.02;;
73729;SDS011;62036;48.128;16.458;2023-02-01T16:23:10;2.10;;;1.08;;
73729;SDS011;62036;48.128;16.458;2023-02-01T16:25:36;1.95;;;1.13;;
73729;SDS011;62036;48.128;16.458;2023-02-01T16:28:03;1.85;;;1.00;;
73729;SDS011;62036;48.128;16.458;2023-02-01T16:30:30;1.00;;;0.90;;
73729;SDS011;62036;48.128;16.458;2023-02-01T16:32:57;1.60;;;1.10;;
73729;SDS011;62036;48.128;16.458;2023-02-01T16:35:25;1.10;;;1.00;;
73729;SDS011;62036;48.128;16.458;2023-02-01T16:37:51;0.70;;;0.70;;
73729;SDS011;62036;48.128;16.458;2023-02-01T16:40:17;2.08;;;1.15;;
73729;SDS011;62036;48.128;16.458;2023-02-01T16:42:44;1.77;;;1.50;;
73729;SDS011;62036;48.128;16.458;2023-02-01T16:45:11;1.67;;;1.10;;
73729;SDS011;62036;48.128;16.458;2023-02-01T16:47:37;4.38;;;1.70;;
73729;SDS011;62036;48.128;16.458;2023-02-01T16:50:04;4.85;;;1.67;;
73729;SDS011;62036;48.128;16.458;2023-02-01T16:52:30;2.17;;;1.10;;
73729;SDS011;62036;48.128;16.458;2023-02-01T16:54:56;1.13;;;0.93;;
73729;SDS011;62036;48.128;16.458;2023-02-01T16:57:22;1.85;;;1.25;;
73729;SDS011;62036;48.128;16.458;2023-02-01T16:59:49;5.95;;;1.10;;
73729;SDS011;62036;48.128;16.458;2023-02-01T17:02:16;2.55;;;1.50;;
73729;SDS011;62036;48.128;16.458;2023-02-01T17:04:44;3.03;;;1.38;;
73729;SDS011;62036;48.128;16.458;2023-02-01T17:07:17;5.85;;;1.33;;
73729;SDS011;62036;48.128;16.458;2023-02-01T17:09:43;3.22;;;1.88;;
73729;SDS011;62036;48.128;16.458;2023-02-01T17:12:26;5.28;;;2.10;;